• Join FlightAware (Why Join?)
  • Login
  • US Flag 
11:25AM EDT


 

Airport Tracker/Info


-or-


 

Live Flight TrackerFlight Track Log ✈ CPZ5714 ✈ 09-Jan-2014 ✈ KEWR - KMSP

Flight Track Log - Related Links

Times and Time Zones

All times are in EST time to prevent confusion due to time zone crossing. See the CPZ5714 flight status page for this flight to view local times or setup timezone preferences in your user account.

Time Position Orientation Groundspeed Altitude Reporting Facility
EST Latitude Longitude Course Direction KTS MPH feet Rate Location/Type
06:11PM 40.6500 -74.1833 304° West 173 199 1,900  Level New York TRACON
06:12PM 40.6500 -74.2667 270° West 216 249 3,700 2,340 Climbing New York TRACON
06:13PM 40.6833 -74.3500 298° West 264 304 6,600 2,220 Climbing New York TRACON
06:14PM 40.8493 -74.6593 304° West  Level Estimated
06:14PM 40.7667 -74.3333 North 277 319 8,200  Level New York TRACON
06:15PM 40.8881 -74.7823 270° West  Level Estimated
06:15PM 40.8333 -74.3333 360° North 283 326 9,800  Level New York TRACON
06:16PM 40.9269 -74.9055 298° West  Level Estimated
06:16PM 40.9167 -74.3333 360° North 314 361 10,900  Level New York TRACON
06:17PM 40.9655 -75.0288 304° West  Level Estimated
06:17PM 41.0167 -74.3500 353° North 355 409 13,200  Level New York TRACON
06:19PM 41.1575 -74.3481 North 383 441 15,900 1,860 Climbing New York Center
06:20PM 41.2417 -74.3856 341° North 366 421 17,600 1,680 Climbing New York Center
06:21PM 41.3197 -74.4864 316° Northwest 343 395 19,300 1,500 Climbing New York Center
06:22PM 41.3800 -74.5589 318° Northwest 356 410 20,700 1,500 Climbing New York Center
06:23PM 41.4556 -74.6628 314° West 361 415 22,400 1,560 Climbing New York Center
06:24PM 41.4933 -74.7842 293° West 361 415 23,800 1,380 Climbing New York Center
06:25PM 41.5325 -74.9111 292° West 361 415 25,200 1,200 Climbing New York Center
06:26PM 41.5719 -75.0383 293° West 361 415 26,300 1,080 Climbing New York Center
06:27PM 41.6067 -75.1653 290° West 366 421 27,400 1,020 Climbing New York Center
06:28PM 41.6514 -75.3072 293° West 373 429 28,400 900 Climbing New York Center
06:29PM 41.6881 -75.4375 291° West 379 436 29,200 720 Climbing New York Center
06:30PM 41.7264 -75.5681 292° West 379 436 29,900 660 Climbing New York Center
06:31PM 41.7628 -75.6983 291° West 379 436 30,600 660 Climbing New York Center
06:32PM 41.8011 -75.8292 291° West 379 436 31,300 720 Climbing New York Center
06:33PM 41.8392 -75.9575 292° West 379 436 32,100 600 Climbing New York Center
06:34PM 41.8753 -76.0856 291° West 379 436 32,600 480 Climbing New York Center
06:35PM 41.9131 -76.2142 292° West 379 436 33,100 420 Climbing New York Center
06:36PM 41.9489 -76.3425 291° West 379 436 33,500 300 Climbing New York Center
06:37PM 41.9808 -76.4569 291° West 379 436 33,800 120 Climbing New York Center
06:39PM 42.0667 -76.7333 293° West 380 437 34,000 60 Climbing Toronto Center
06:40PM 42.1000 -76.8667 289° West 380 437 34,000  Level Toronto Center
06:41PM 42.1333 -77.0000 289° West 380 437 34,000  Level Toronto Center
06:42PM 42.1667 -77.1333 289° West 380 437 34,000  Level Toronto Center
06:43PM 42.2000 -77.2667 289° West 380 437 34,000  Level Toronto Center
06:44PM 42.2333 -77.4000 289° West 380 437 34,000  Level Toronto Center
06:45PM 42.2833 -77.5333 297° West 380 437 34,000  Level Toronto Center
06:46PM 42.3167 -77.6667 289° West 380 437 34,000  Level Toronto Center
06:46PM 42.3369 -77.7569 287° West 379 436 34,000  Level Cleveland Center
06:47PM 42.3725 -77.8928 290° West 380 437 34,000  Level Cleveland Center
06:48PM 42.4081 -78.0283 290° West 380 437 34,000  Level Cleveland Center
06:49PM 42.4444 -78.1628 290° West 379 436 34,000  Level Cleveland Center
06:51PM 42.4797 -78.2989 289° West 381 438 34,000  Level Cleveland Center
06:52PM 42.5222 -78.4606 290° West 381 438 34,000  Level Cleveland Center
06:53PM 42.5586 -78.5964 290° West 384 442 34,000  Level Cleveland Center
06:54PM 42.5933 -78.7328 289° West 383 441 34,000  Level Cleveland Center
06:55PM 42.6269 -78.8686 289° West 379 436 34,000  Level Cleveland Center
06:56PM 42.6628 -79.0036 290° West 380 437 34,000  Level Cleveland Center
06:57PM 42.6964 -79.1403 289° West 381 438 34,000  Level Cleveland Center
06:58PM 42.7386 -79.3047 289° West 383 441 34,000  Level Cleveland Center
06:59PM 42.7733 -79.4428 289° West 385 443 34,000  Level Cleveland Center
07:00PM 42.8078 -79.5806 289° West 385 443 34,000  Level Cleveland Center
07:01PM 42.8414 -79.7181 288° West 385 443 34,000  Level Cleveland Center
07:02PM 42.8683 -79.8281 289° West 384 442 34,000  Level Cleveland Center
07:03PM 42.9047 -79.9833 288° West 383 441 34,000  Level Cleveland Center
07:04PM 42.9383 -80.1233 288° West 384 442 34,000  Level Cleveland Center
07:05PM 42.9719 -80.2636 288° West 386 444 34,000  Level Cleveland Center
07:06PM 43.0053 -80.4042 288° West 387 445 34,000  Level Cleveland Center
07:07PM 43.0378 -80.5442 288° West 385 443 34,000  Level Cleveland Center
07:08PM 43.0769 -80.7089 288° West 388 447 34,000  Level Cleveland Center
07:09PM 43.1100 -80.8503 288° West 387 445 34,000  Level Cleveland Center
07:10PM 43.1433 -80.9917 288° West 388 447 34,000  Level Cleveland Center
07:11PM 43.1758 -81.1331 288° West 386 444 34,000  Level Cleveland Center
07:12PM 43.1833 -81.2500 275° West 390 449 34,000  Level Toronto Center
07:13PM 43.2333 -81.4000 295° West 390 449 34,000  Level Toronto Center
07:14PM 43.2667 -81.5333 289° West 390 449 34,000  Level Toronto Center
07:15PM 43.3000 -81.7000 285° West 400 460 34,000  Level Toronto Center
07:16PM 43.3333 -81.8333 289° West 400 460 34,000  Level Toronto Center
07:17PM 43.3500 -81.9667 280° West 390 449 34,000  Level Toronto Center
07:18PM 43.3833 -82.1167 287° West 390 449 34,000  Level Toronto Center
07:19PM 43.4167 -82.2500 289° West 390 449 34,000  Level Toronto Center
07:20PM 43.4500 -82.4167 285° West 390 449 34,000  Level Toronto Center
07:21PM 43.4833 -82.5500 289° West 400 460 34,000  Level Toronto Center
07:22PM 43.5167 -82.6833 289° West 400 460 34,000  Level Toronto Center
07:22PM 43.5358 -82.7522 291° West 398 458 34,000  Level Cleveland Center
07:23PM 43.5736 -82.9256 287° West 397 457 34,000  Level Cleveland Center
07:24PM 43.6044 -83.0714 286° West 397 457 34,000  Level Cleveland Center
07:25PM 43.6344 -83.2158 286° West 395 455 34,000  Level Cleveland Center
07:27PM 43.6658 -83.3722 286° West 397 457 34,000  Level Minneapolis Center
07:28PM 43.7031 -83.5472 286° West 397 457 34,000  Level Minneapolis Center
07:29PM 43.7328 -83.6942 286° West 398 458 34,000  Level Minneapolis Center
07:30PM 43.7603 -83.8408 285° West 397 457 34,000  Level Minneapolis Center
07:31PM 43.7881 -83.9886 285° West 398 458 34,000  Level Minneapolis Center
07:32PM 43.8133 -84.1361 283° West 396 456 34,000  Level Minneapolis Center
07:33PM 43.8419 -84.2861 285° West 401 461 34,000  Level Minneapolis Center
07:34PM 43.8731 -84.4658 284° West 402 463 34,000  Level Minneapolis Center
07:35PM 43.9011 -84.6158 285° West 403 464 34,000  Level Minneapolis Center
07:36PM 43.9281 -84.7669 284° West 404 465 34,000  Level Minneapolis Center
07:37PM 43.9544 -84.9192 284° West 407 468 34,000  Level Minneapolis Center
07:38PM 43.9808 -85.0692 284° West 405 466 34,000  Level Minneapolis Center
07:39PM 44.0075 -85.2203 284° West 405 466 34,000  Level Minneapolis Center
07:40PM 44.0397 -85.4028 284° West 407 468 34,000  Level Minneapolis Center
07:41PM 44.0647 -85.5536 283° West 404 465 34,000  Level Minneapolis Center
07:42PM 44.0908 -85.7031 284° West 403 464 34,000  Level Minneapolis Center
07:43PM 44.1156 -85.8567 283° West 404 465 34,000  Level Minneapolis Center
07:44PM 44.1403 -86.0097 283° West 404 465 34,000  Level Minneapolis Center
07:45PM 44.1656 -86.1614 283° West 402 463 34,000  Level Minneapolis Center
07:46PM 44.1908 -86.3158 283° West 407 468 34,000  Level Minneapolis Center
07:47PM 44.2211 -86.5028 283° West 410 472 34,000  Level Minneapolis Center
07:48PM 44.2458 -86.6614 282° West 415 478 34,000  Level Minneapolis Center
07:49PM 44.2711 -86.8183 283° West 416 479 34,000  Level Minneapolis Center
07:50PM 44.2953 -86.9753 282° West 414 476 34,000  Level Minneapolis Center
07:51PM 44.3197 -87.1319 282° West 414 476 34,000  Level Minneapolis Center
07:52PM 44.3431 -87.2883 282° West 414 476 34,000  Level Minneapolis Center
07:53PM 44.3675 -87.4442 282° West 414 476 34,000  Level Minneapolis Center
07:54PM 44.3956 -87.6331 282° West 416 479 34,000  Level Minneapolis Center
07:55PM 44.4189 -87.7903 282° West 417 480 34,000  Level Minneapolis Center
07:56PM 44.4411 -87.9478 281° West 417 480 34,000  Level Minneapolis Center
07:57PM 44.4639 -88.1039 282° West 414 476 34,000  Level Minneapolis Center
07:59PM 44.4867 -88.2628 281° West 418 481 34,000  Level Minneapolis Center
08:00PM 44.5086 -88.4197 281° West 414 476 34,000  Level Minneapolis Center
08:01PM 44.5353 -88.6111 281° West 418 481 34,000  Level Minneapolis Center
08:02PM 44.5586 -88.7692 282° West 417 480 34,000  Level Minneapolis Center
08:03PM 44.5797 -88.9286 281° West 417 480 34,000 -180 Level Minneapolis Center
08:04PM 44.6019 -89.0878 281° West 419 482 33,700 -660 Descending Minneapolis Center
08:05PM 44.6231 -89.2486 281° West 421 484 32,700 -840 Descending Minneapolis Center
08:06PM 44.6436 -89.4111 280° West 423 487 32,000 -360 Descending Minneapolis Center
08:07PM 44.6706 -89.6064 281° West 425 489 32,000  Level Minneapolis Center
08:08PM 44.6911 -89.7714 280° West 429 494 32,000  Level Minneapolis Center
08:09PM 44.7125 -89.9375 280° West 433 498 32,000  Level Minneapolis Center
08:10PM 44.7322 -90.1014 280° West 430 495 32,000  Level Minneapolis Center
08:11PM 44.7547 -90.2664 281° West 430 495 32,000  Level Minneapolis Center
08:12PM 44.7742 -90.4328 279° West 432 497 32,000  Level Minneapolis Center
08:13PM 44.7956 -90.6108 280° West 431 496 32,000 -180 Level Minneapolis Center
08:14PM 44.8169 -90.7775 280° West 433 498 31,700 -1,260 Descending Minneapolis Center
08:15PM 44.8372 -90.9436 280° West 432 497 29,500 -2,460 Descending Minneapolis Center
08:16PM 44.8583 -91.1447 278° West 433 498 26,700 -2,400 Descending Minneapolis Center
08:17PM 44.8769 -91.3036 279° West 422 486 24,600 -2,100 Descending Minneapolis Center
08:18PM 44.8956 -91.4553 280° West 405 466 22,500 -2,040 Descending Minneapolis Center
08:19PM 44.9194 -91.6022 283° West 391 450 20,400 -2,040 Descending Minneapolis Center
08:20PM 44.9481 -91.7453 286° West 382 440 18,400 -1,980 Descending Minneapolis Center
08:21PM 44.9750 -91.8847 285° West 374 430 16,400 -1,860 Descending Minneapolis Center
08:22PM 44.9997 -92.0197 285° West 359 413 14,600 -2,040 Descending Minneapolis Center
08:23PM 45.0289 -92.1803 284° West 353 406 12,300 -1,860 Descending Minneapolis Center
08:24PM 45.0458 -92.3117 280° West 346 398 10,900 -660 Descending Minneapolis Center
08:25PM 45.0250 -92.4414 257° West 340 391 11,000  Climbing Minneapolis Center
08:26PM 45.0042 -92.5719 257° West 341 392 11,000  Level Minneapolis Center
08:27PM 44.9842 -92.7017 258° West 341 392 11,000 -60 Level Minneapolis Center
08:28PM 44.9633 -92.8333 257° West 341 392 10,900 -420 Descending Minneapolis Center
08:29PM 44.9389 -92.9811 257° West 325 374 10,200 -840 Descending Minneapolis Center
08:30PM 44.9386 -93.0806 270° West 275 316 9,200 -1,200 Descending Minneapolis Center
08:31PM 44.9811 -93.1647 306° West 265 305 7,800 -1,440 Descending Minneapolis Center
08:33PM 45.0228 -93.2444 306° West 256 295 6,300 -1,320 Descending Minneapolis Center
08:34PM 45.0200 -93.3186 267° West 218 251 5,200 -1,320 Descending Minneapolis Center
08:35PM 44.9658 -93.3528 204° Southwest 185 213 3,700 -1,260 Descending Minneapolis Center
08:36PM 44.9239 -93.3178 149° Southeast 179 206 2,600 -1,020 Descending Minneapolis Center
08:37PM 44.9028 -93.2697 122° Southeast 142 163 1,600 -1,020 Descending Minneapolis Center